Time;durP1;ratioP1;P1;durP2;ratioP2;P2;SDS_P1;SDS_P2;PMS_P1;PMS_P2;Temp;Humidity;BMP_temperature;BMP_pressure;BME280_temperature;BME280_humidity;BME280_pressure;Samples;Min_cycle;Max_cycle;Signal;HPM_P1;HPM_P2
2022/02/25 00:00:32;;;;;;;4.10;2.00;;;5.80;99.90;;;;;;5079760;28;20271;-69
2022/02/25 00:02:58;;;;;;;3.00;1.83;;;5.80;99.90;;;;;;5080999;28;20179;-68
2022/02/25 00:05:24;;;;;;;6.27;1.80;;;5.90;99.90;;;;;;5077276;28;20220;-68
2022/02/25 00:07:50;;;;;;;2.93;1.60;;;5.80;99.90;;;;;;5079942;28;20186;-67
2022/02/25 00:10:16;;;;;;;6.30;1.77;;;5.70;99.90;;;;;;5080771;28;20448;-69
2022/02/25 00:12:41;;;;;;;1.60;1.40;;;5.70;99.90;;;;;;5081506;28;20196;-69
2022/02/25 00:15:07;;;;;;;3.63;1.50;;;5.60;99.90;;;;;;5078740;28;20191;-69
2022/02/25 00:17:33;;;;;;;2.40;2.20;;;5.60;99.90;;;;;;5080069;28;20263;-69
2022/02/25 00:19:59;;;;;;;10.30;1.97;;;5.50;99.90;;;;;;5082420;28;20863;-69
2022/02/25 00:22:24;;;;;;;3.43;1.70;;;5.60;99.90;;;;;;5080193;28;20214;-69
2022/02/25 00:24:50;;;;;;;2.90;2.07;;;5.60;99.90;;;;;;5080186;28;20209;-69
2022/02/25 00:27:16;;;;;;;3.53;1.80;;;5.60;99.90;;;;;;5079562;28;20269;-68
2022/02/25 00:29:41;;;;;;;3.57;1.97;;;5.60;99.90;;;;;;5081206;28;20214;-69
2022/02/25 00:32:07;;;;;;;5.23;2.07;;;5.50;99.90;;;;;;5080877;28;20201;-69
2022/02/25 00:34:33;;;;;;;3.50;1.60;;;5.50;99.90;;;;;;5079623;28;20193;-69
2022/02/25 00:36:59;;;;;;;7.93;2.33;;;5.50;99.90;;;;;;5077648;28;20997;-69
2022/02/25 00:39:24;;;;;;;3.00;2.00;;;5.50;99.90;;;;;;5080023;28;20202;-69
2022/02/25 00:41:50;;;;;;;7.13;2.10;;;5.40;99.90;;;;;;5076976;28;20236;-69
2022/02/25 00:44:15;;;;;;;2.53;2.33;;;5.50;99.90;;;;;;5081554;28;20182;-69
2022/02/25 00:46:41;;;;;;;1.90;1.70;;;5.50;99.90;;;;;;5077518;28;20196;-69
2022/02/25 00:49:07;;;;;;;6.53;2.07;;;5.50;99.90;;;;;;5080957;28;20191;-69
2022/02/25 00:51:33;;;;;;;3.20;1.90;;;5.40;99.90;;;;;;5084473;28;20281;-69
2022/02/25 00:53:58;;;;;;;3.40;1.90;;;5.30;99.90;;;;;;5081673;28;20256;-68
2022/02/25 00:56:24;;;;;;;3.67;1.67;;;5.30;99.90;;;;;;5084618;28;20521;-69
2022/02/25 00:58:50;;;;;;;3.07;1.97;;;5.20;99.90;;;;;;5082833;28;20178;-69
2022/02/25 01:01:16;;;;;;;4.30;1.70;;;5.20;99.90;;;;;;5085484;28;21168;-69
2022/02/25 01:03:41;;;;;;;9.90;1.70;;;5.20;99.90;;;;;;5082866;28;20201;-69
2022/02/25 01:06:10;;;;;;;5.13;2.73;;;5.10;99.90;;;;;;5080758;28;20186;-69
2022/02/25 01:08:36;;;;;;;2.83;1.63;;;5.10;99.90;;;;;;5082898;28;20187;-69
2022/02/25 01:11:01;;;;;;;6.90;1.70;;;5.20;99.90;;;;;;5081561;28;20476;-68
2022/02/25 01:13:27;;;;;;;4.30;1.77;;;5.20;99.90;;;;;;5082398;28;20957;-68
2022/02/25 01:15:52;;;;;;;3.40;1.70;;;5.20;99.90;;;;;;5084926;28;20201;-69
2022/02/25 01:18:18;;;;;;;6.67;1.80;;;5.20;99.90;;;;;;5082799;28;20208;-69
2022/02/25 01:20:44;;;;;;;4.30;2.10;;;5.20;99.90;;;;;;5081739;28;20293;-68
2022/02/25 01:23:09;;;;;;;4.43;2.23;;;5.30;99.90;;;;;;5082318;28;20241;-68
2022/02/25 01:25:35;;;;;;;2.67;1.60;;;5.20;99.90;;;;;;5085593;28;20175;-69
2022/02/25 01:28:01;;;;;;;3.40;1.73;;;5.20;99.90;;;;;;5081590;28;20187;-69
2022/02/25 01:30:27;;;;;;;4.10;1.90;;;5.20;99.90;;;;;;5086235;28;20563;-68
2022/02/25 01:32:52;;;;;;;2.70;2.00;;;5.00;99.90;;;;;;5082384;28;20209;-69
2022/02/25 01:35:18;;;;;;;5.53;1.83;;;5.00;99.90;;;;;;5083217;28;20194;-68
2022/02/25 01:37:44;;;;;;;3.30;1.87;;;5.00;99.90;;;;;;5083557;28;20210;-68
2022/02/25 01:40:10;;;;;;;2.80;1.80;;;5.00;99.90;;;;;;5083192;28;20217;-68
2022/02/25 01:42:44;;;;;;;7.73;1.70;;;5.00;99.90;;;;;;5085484;28;20440;-68
2022/02/25 01:45:09;;;;;;;4.90;1.67;;;5.00;99.90;;;;;;5081686;28;20420;-68
2022/02/25 01:47:35;;;;;;;2.50;1.60;;;4.90;99.90;;;;;;5080968;28;21007;-67
2022/02/25 01:50:00;;;;;;;2.47;1.40;;;4.90;99.90;;;;;;5082859;28;20228;-68
2022/02/25 01:52:26;;;;;;;3.10;1.77;;;5.00;99.90;;;;;;5083756;28;20202;-67
2022/02/25 01:54:52;;;;;;;4.47;1.80;;;5.00;99.90;;;;;;5082497;28;20190;-67
2022/02/25 01:57:17;;;;;;;4.80;1.43;;;5.00;99.90;;;;;;5082618;28;20289;-68
2022/02/25 01:59:43;;;;;;;2.20;1.60;;;5.00;99.90;;;;;;5082927;28;20214;-68
2022/02/25 02:02:09;;;;;;;5.23;1.77;;;5.00;99.90;;;;;;5085307;28;20187;-67
2022/02/25 02:04:36;;;;;;;4.13;1.70;;;5.00;99.90;;;;;;5083393;28;20428;-67
2022/02/25 02:07:02;;;;;;;2.83;1.70;;;5.10;99.90;;;;;;5083470;28;20432;-68
2022/02/25 02:09:28;;;;;;;4.13;1.50;;;5.10;99.90;;;;;;5083063;28;20484;-68
2022/02/25 02:11:55;;;;;;;3.30;1.60;;;5.00;99.90;;;;;;5084568;28;20426;-67
2022/02/25 02:14:23;;;;;;;3.20;1.80;;;5.10;99.90;;;;;;5084134;28;20799;-69
2022/02/25 02:16:52;;;;;;;5.23;1.50;;;5.10;99.90;;;;;;5082181;28;20936;-68
2022/02/25 02:19:19;;;;;;;4.70;1.60;;;5.00;99.90;;;;;;5079211;28;20435;-68
2022/02/25 02:21:53;;;;;;;4.70;1.90;;;4.90;99.90;;;;;;5083520;28;21294;-68
2022/02/25 02:24:20;;;;;;;2.13;1.93;;;4.90;99.90;;;;;;5081065;28;20881;-68
2022/02/25 02:26:48;;;;;;;2.60;2.00;;;4.90;99.90;;;;;;5083163;28;20473;-68
2022/02/25 02:29:13;;;;;;;5.73;1.80;;;4.80;99.90;;;;;;5080053;28;20972;-68
2022/02/25 02:31:39;;;;;;;2.73;1.60;;;4.70;99.90;;;;;;5080794;28;20454;-68
2022/02/25 02:34:06;;;;;;;3.40;2.10;;;4.80;99.90;;;;;;5082279;28;20187;-68
2022/02/25 02:36:32;;;;;;;4.90;1.57;;;4.60;99.90;;;;;;5079160;28;20216;-68
2022/02/25 02:38:58;;;;;;;3.90;1.80;;;4.70;99.90;;;;;;5080854;28;20585;-69
2022/02/25 02:41:24;;;;;;;7.70;2.00;;;4.70;99.90;;;;;;5082186;28;20589;-68
2022/02/25 02:43:49;;;;;;;4.77;2.10;;;4.80;99.90;;;;;;5082464;28;20672;-69
2022/02/25 02:46:15;;;;;;;5.43;1.90;;;4.70;99.90;;;;;;5079751;28;20186;-67
2022/02/25 02:48:42;;;;;;;3.90;2.00;;;4.70;99.90;;;;;;5079001;28;20179;-68
2022/02/25 02:51:09;;;;;;;3.30;1.80;;;4.60;99.90;;;;;;5080358;28;20467;-68
2022/02/25 02:53:35;;;;;;;4.00;1.90;;;4.60;99.90;;;;;;5082821;28;22321;-68
2022/02/25 02:56:02;;;;;;;6.37;2.17;;;4.60;99.90;;;;;;5079442;28;20456;-68
2022/02/25 02:58:27;;;;;;;3.40;2.03;;;4.50;99.90;;;;;;5079933;28;20432;-69
2022/02/25 03:00:54;;;;;;;3.80;1.90;;;4.60;99.90;;;;;;5084903;28;20470;-68
2022/02/25 03:03:20;;;;;;;4.77;2.00;;;4.60;99.90;;;;;;5078767;28;20735;-67
2022/02/25 03:05:46;;;;;;;12.97;1.90;;;4.60;99.90;;;;;;5084269;28;20819;-68
2022/02/25 03:08:12;;;;;;;5.63;1.90;;;4.50;99.90;;;;;;5080776;28;20533;-68
2022/02/25 03:10:41;;;;;;;2.47;1.70;;;4.40;99.90;;;;;;5081913;28;20541;-68
2022/02/25 03:13:10;;;;;;;4.90;2.10;;;4.50;99.90;;;;;;5080637;28;20822;-68
2022/02/25 03:15:36;;;;;;;5.30;1.90;;;4.60;99.90;;;;;;5082519;28;20514;-69
2022/02/25 03:18:02;;;;;;;6.20;2.03;;;4.70;99.90;;;;;;5081426;28;20551;-68
2022/02/25 03:20:29;;;;;;;5.07;1.70;;;4.60;99.90;;;;;;5079914;28;22271;-69
2022/02/25 03:22:55;;;;;;;2.57;1.90;;;4.60;99.90;;;;;;5082832;28;20778;-68
2022/02/25 03:25:21;;;;;;;8.83;1.83;;;4.60;99.90;;;;;;5081690;28;20428;-69
2022/02/25 03:27:47;;;;;;;3.00;1.90;;;4.60;99.90;;;;;;5082851;28;20458;-69
2022/02/25 03:30:13;;;;;;;3.80;2.63;;;4.60;99.90;;;;;;5080106;28;20506;-69
2022/02/25 03:32:42;;;;;;;3.33;1.67;;;4.50;99.90;;;;;;5081846;28;20427;-68
2022/02/25 03:35:09;;;;;;;3.60;1.93;;;4.50;99.90;;;;;;5078702;28;20467;-68
2022/02/25 03:37:34;;;;;;;6.60;2.20;;;4.50;99.90;;;;;;5081475;28;20467;-70
2022/02/25 03:40:00;;;;;;;6.57;1.80;;;4.50;99.90;;;;;;5079206;28;20471;-69
2022/02/25 03:42:26;;;;;;;9.70;2.33;;;4.50;99.90;;;;;;5081575;28;20186;-69
2022/02/25 03:44:51;;;;;;;5.87;1.97;;;4.50;99.90;;;;;;5081024;28;20267;-69
2022/02/25 03:47:17;;;;;;;12.00;3.10;;;4.50;99.90;;;;;;5077444;28;20186;-70
2022/02/25 03:49:43;;;;;;;9.73;2.37;;;4.40;99.90;;;;;;5079655;28;20768;-69
2022/02/25 03:52:09;;;;;;;2.67;1.83;;;4.50;99.90;;;;;;5076862;28;20186;-69
2022/02/25 03:54:35;;;;;;;8.33;2.60;;;4.50;99.90;;;;;;5081990;28;20921;-69
2022/02/25 03:57:01;;;;;;;2.57;2.13;;;4.50;99.90;;;;;;5078572;28;20456;-69
2022/02/25 03:59:27;;;;;;;8.10;2.10;;;4.50;99.90;;;;;;5078767;28;20432;-69
2022/02/25 04:01:53;;;;;;;3.00;1.70;;;4.50;99.90;;;;;;5080757;28;20503;-69
2022/02/25 04:04:20;;;;;;;5.90;2.13;;;4.50;99.90;;;;;;5081410;28;20174;-70
2022/02/25 04:06:46;;;;;;;8.10;2.10;;;4.50;99.90;;;;;;5080556;28;20666;-69
2022/02/25 04:09:11;;;;;;;6.20;2.17;;;4.40;99.90;;;;;;5076574;28;20441;-70
2022/02/25 04:11:38;;;;;;;6.23;2.73;;;4.50;99.90;;;;;;5080251;28;20199;-70
2022/02/25 04:14:03;;;;;;;7.20;2.80;;;4.50;99.90;;;;;;5080267;28;20244;-69
2022/02/25 04:16:29;;;;;;;4.30;2.03;;;4.50;99.90;;;;;;5078934;28;20460;-69
2022/02/25 04:18:55;;;;;;;4.90;2.03;;;4.50;99.90;;;;;;5083665;28;20424;-70
2022/02/25 04:21:20;;;;;;;4.20;2.40;;;4.50;99.90;;;;;;5081878;28;20206;-69
2022/02/25 04:23:46;;;;;;;12.37;2.27;;;4.30;99.90;;;;;;5080044;28;20181;-69
2022/02/25 04:26:11;;;;;;;12.13;2.30;;;4.40;99.90;;;;;;5076308;28;20943;-70
2022/02/25 04:28:37;;;;;;;10.77;3.87;;;4.40;99.90;;;;;;5077271;28;20322;-69
2022/02/25 04:31:03;;;;;;;5.23;2.00;;;4.40;99.90;;;;;;5079395;28;20257;-69
2022/02/25 04:33:28;;;;;;;3.83;2.10;;;4.40;99.90;;;;;;5078592;28;20186;-69
2022/02/25 04:35:54;;;;;;;5.73;2.27;;;4.40;99.90;;;;;;5080847;28;20174;-69
2022/02/25 04:38:19;;;;;;;5.80;2.33;;;4.40;99.90;;;;;;5077618;28;20209;-69
2022/02/25 04:40:45;;;;;;;9.10;2.50;;;4.40;99.90;;;;;;5075766;28;20209;-68
2022/02/25 04:43:11;;;;;;;7.10;2.60;;;4.40;99.90;;;;;;5079303;28;20215;-69
2022/02/25 04:45:37;;;;;;;7.00;2.47;;;4.50;99.90;;;;;;5079492;28;20530;-69
2022/02/25 04:48:03;;;;;;;8.50;2.53;;;4.30;99.90;;;;;;5080540;28;20980;-68
2022/02/25 04:50:29;;;;;;;7.90;2.67;;;4.40;99.90;;;;;;5079608;28;20482;-69
2022/02/25 04:52:55;;;;;;;10.57;2.33;;;4.40;99.90;;;;;;5080043;28;20448;-69
2022/02/25 04:55:20;;;;;;;5.20;3.10;;;4.40;99.90;;;;;;5079779;28;20187;-69
2022/02/25 04:57:47;;;;;;;3.00;2.23;;;4.50;99.90;;;;;;5080924;28;20194;-69
2022/02/25 05:00:14;;;;;;;7.83;2.40;;;4.40;99.90;;;;;;5081507;28;20225;-69
2022/02/25 05:02:42;;;;;;;6.87;1.70;;;4.30;99.90;;;;;;5081755;28;20461;-68
2022/02/25 05:05:08;;;;;;;5.53;3.40;;;4.30;99.90;;;;;;5077987;28;20475;-68
2022/02/25 05:07:33;;;;;;;10.67;2.60;;;4.40;99.90;;;;;;5081133;28;20436;-69
2022/02/25 05:09:59;;;;;;;8.47;2.40;;;4.30;99.90;;;;;;5081971;28;20456;-69
2022/02/25 05:12:25;;;;;;;5.90;2.33;;;4.30;99.90;;;;;;5080011;28;20684;-69
2022/02/25 05:20:24;;;;;;;7.33;3.13;;;4.30;99.90;;;;;;5082249;28;20517;-68
2022/02/25 05:22:55;;;;;;;5.30;2.10;;;4.30;99.90;;;;;;5080006;28;20416;-69
2022/02/25 05:25:22;;;;;;;7.87;3.03;;;4.20;99.90;;;;;;5081765;28;20432;-70
2022/02/25 05:27:48;;;;;;;7.33;2.60;;;4.20;99.90;;;;;;5081493;28;20432;-69
2022/02/25 05:30:17;;;;;;;7.17;2.60;;;4.20;99.90;;;;;;5080719;28;20467;-69
2022/02/25 05:32:44;;;;;;;5.97;2.70;;;4.20;99.90;;;;;;5078912;28;21014;-69
2022/02/25 05:35:10;;;;;;;10.53;2.80;;;4.20;99.90;;;;;;5081672;28;20907;-69
2022/02/25 05:37:38;;;;;;;16.97;5.30;;;4.20;99.90;;;;;;5085605;28;21306;-70
2022/02/25 05:40:05;;;;;;;6.17;2.30;;;4.20;99.90;;;;;;5083755;28;20458;-69
2022/02/25 05:42:30;;;;;;;6.90;2.60;;;4.30;99.90;;;;;;5085218;28;20424;-69
2022/02/25 05:44:57;;;;;;;9.97;2.40;;;4.20;99.90;;;;;;5084539;28;20451;-69
2022/02/25 05:47:22;;;;;;;7.90;2.80;;;4.30;99.90;;;;;;5083932;28;20707;-69
2022/02/25 05:49:48;;;;;;;7.27;2.60;;;4.20;99.90;;;;;;5082788;28;20724;-69
2022/02/25 05:52:14;;;;;;;8.70;3.23;;;4.20;99.90;;;;;;5084677;28;20551;-70
2022/02/25 05:54:39;;;;;;;4.43;2.43;;;4.20;99.90;;;;;;5082296;28;20312;-69
2022/02/25 05:57:05;;;;;;;9.60;2.27;;;4.10;99.90;;;;;;5084022;28;20202;-69
2022/02/25 05:59:30;;;;;;;5.53;1.90;;;4.20;99.90;;;;;;5083583;28;20189;-69
2022/02/25 06:01:56;;;;;;;3.97;2.40;;;4.10;99.90;;;;;;5084380;28;20167;-69
2022/02/25 06:04:23;;;;;;;15.80;3.90;;;4.10;99.90;;;;;;5082773;28;20314;-69
2022/02/25 06:06:48;;;;;;;7.50;2.30;;;4.10;99.90;;;;;;5081263;28;20647;-69
2022/02/25 06:09:14;;;;;;;6.20;2.30;;;4.20;99.90;;;;;;5084189;28;20196;-69
2022/02/25 06:11:40;;;;;;;10.03;2.87;;;4.20;99.90;;;;;;5083158;28;20191;-70
2022/02/25 06:14:05;;;;;;;4.13;3.47;;;4.10;99.90;;;;;;5077969;28;20205;-70
2022/02/25 06:16:31;;;;;;;4.23;2.50;;;4.10;99.90;;;;;;5074817;28;20214;-70
2022/02/25 06:18:56;;;;;;;9.10;3.10;;;4.00;99.90;;;;;;5080651;28;20572;-70
2022/02/25 06:21:22;;;;;;;6.30;2.37;;;4.10;99.90;;;;;;5080749;28;20211;-69
2022/02/25 06:23:48;;;;;;;5.53;2.20;;;4.10;99.90;;;;;;5080709;28;20261;-69
2022/02/25 06:26:13;;;;;;;9.70;3.00;;;4.10;99.90;;;;;;5071401;28;20182;-70
2022/02/25 06:28:39;;;;;;;5.10;2.47;;;4.10;99.90;;;;;;5082631;28;20178;-71
2022/02/25 06:31:05;;;;;;;6.07;2.50;;;4.10;99.90;;;;;;5082344;28;20214;-70
2022/02/25 06:33:31;;;;;;;5.73;3.20;;;4.10;99.90;;;;;;5080695;28;20431;-68
2022/02/25 06:35:56;;;;;;;11.10;2.60;;;4.10;99.90;;;;;;5083634;28;20179;-68
2022/02/25 06:38:25;;;;;;;6.90;3.20;;;4.10;99.90;;;;;;5082593;28;20209;-68
2022/02/25 06:40:51;;;;;;;3.87;2.67;;;4.10;99.90;;;;;;5084042;28;20383;-68
2022/02/25 06:43:17;;;;;;;4.93;2.80;;;4.10;99.90;;;;;;5078027;28;20529;-68
2022/02/25 06:45:42;;;;;;;9.93;2.40;;;4.10;99.90;;;;;;5083179;28;21005;-68
2022/02/25 06:48:08;;;;;;;9.77;2.50;;;4.10;99.90;;;;;;5078023;28;20190;-69
2022/02/25 06:50:34;;;;;;;7.00;2.70;;;4.20;99.90;;;;;;5083004;28;20688;-68
2022/02/25 06:52:59;;;;;;;6.10;2.60;;;4.20;99.90;;;;;;5082704;28;20186;-69
2022/02/25 06:55:25;;;;;;;7.70;2.30;;;4.20;99.90;;;;;;5082794;28;20190;-69
2022/02/25 06:57:51;;;;;;;8.33;2.50;;;4.10;99.90;;;;;;5082443;28;20307;-69
2022/02/25 07:00:21;;;;;;;6.73;2.63;;;4.10;99.90;;;;;;5083777;28;20697;-68
2022/02/25 07:02:49;;;;;;;5.33;2.97;;;4.10;99.90;;;;;;5081373;28;21541;-69
2022/02/25 07:05:15;;;;;;;11.27;2.70;;;4.10;99.90;;;;;;5083766;28;20417;-68
2022/02/25 07:07:40;;;;;;;12.70;3.10;;;4.20;99.90;;;;;;5082203;28;20558;-68
2022/02/25 07:10:07;;;;;;;9.47;2.80;;;4.20;99.90;;;;;;5079019;28;20214;-70
2022/02/25 07:12:32;;;;;;;9.13;2.60;;;4.30;99.90;;;;;;5080546;28;20184;-69
2022/02/25 07:14:59;;;;;;;4.90;3.00;;;4.20;99.90;;;;;;5081434;28;21041;-69
2022/02/25 07:17:24;;;;;;;6.70;2.17;;;4.20;99.90;;;;;;5080043;28;20206;-69
2022/02/25 07:19:50;;;;;;;2.70;2.10;;;4.20;99.90;;;;;;5082342;28;20455;-68
2022/02/25 07:22:16;;;;;;;6.37;2.10;;;4.20;99.90;;;;;;5082666;28;20946;-69
2022/02/25 07:24:42;;;;;;;4.70;2.60;;;4.20;99.90;;;;;;5079458;28;20185;-70
2022/02/25 07:27:25;;;;;;;7.40;3.20;;;4.30;99.90;;;;;;5082141;28;20535;-69
2022/02/25 07:29:52;;;;;;;6.93;2.07;;;4.40;99.90;;;;;;5081034;28;20204;-67
2022/02/25 07:32:19;;;;;;;3.70;2.30;;;4.30;99.90;;;;;;5083540;28;20427;-68
2022/02/25 07:34:44;;;;;;;6.40;2.70;;;4.40;99.90;;;;;;5080119;28;20690;-68
2022/02/25 07:37:10;;;;;;;7.43;2.40;;;4.30;99.90;;;;;;5077906;28;20841;-67
2022/02/25 07:39:36;;;;;;;9.30;2.70;;;4.40;99.90;;;;;;5083850;28;20328;-68
2022/02/25 07:42:02;;;;;;;6.30;2.47;;;4.40;99.90;;;;;;5080755;28;20670;-68
2022/02/25 07:44:27;;;;;;;6.77;2.87;;;4.50;99.90;;;;;;5080246;28;20201;-67
2022/02/25 07:46:54;;;;;;;6.00;2.73;;;4.60;99.90;;;;;;5082034;28;20426;-70
2022/02/25 07:49:19;;;;;;;3.57;2.17;;;4.60;99.90;;;;;;5081410;28;20194;-70
2022/02/25 07:51:50;;;;;;;5.90;2.30;;;4.60;99.90;;;;;;5078584;28;20974;-70
2022/02/25 07:54:16;;;;;;;10.60;3.70;;;4.60;99.90;;;;;;5079852;28;20323;-70
2022/02/25 07:56:42;;;;;;;13.13;3.80;;;4.60;99.90;;;;;;5081542;28;20480;-69
2022/02/25 07:59:08;;;;;;;7.93;2.47;;;4.70;99.90;;;;;;5072255;28;20589;-69
2022/02/25 08:01:34;;;;;;;4.77;2.90;;;4.80;99.90;;;;;;5080468;28;20467;-70
2022/02/25 08:03:59;;;;;;;9.83;2.50;;;4.80;99.90;;;;;;5079932;28;20179;-70
2022/02/25 08:06:25;;;;;;;10.37;3.33;;;4.80;99.90;;;;;;5080093;28;20176;-69
2022/02/25 08:08:50;;;;;;;7.03;2.70;;;4.80;99.90;;;;;;5081812;28;20185;-69
2022/02/25 08:11:16;;;;;;;10.40;2.50;;;4.90;99.90;;;;;;5080390;28;20572;-69
2022/02/25 08:13:42;;;;;;;5.33;2.70;;;4.90;99.90;;;;;;5081963;28;20207;-67
2022/02/25 08:16:09;;;;;;;6.27;2.90;;;4.90;99.90;;;;;;5080776;28;20178;-66
2022/02/25 08:18:34;;;;;;;10.00;3.70;;;4.90;99.90;;;;;;5081279;28;20195;-67
2022/02/25 08:21:00;;;;;;;7.47;3.00;;;5.00;99.90;;;;;;5080923;28;20456;-67
2022/02/25 08:23:25;;;;;;;6.50;2.90;;;4.90;99.90;;;;;;5081085;28;20190;-66
2022/02/25 08:25:51;;;;;;;15.83;3.00;;;4.90;99.90;;;;;;5081958;28;20182;-66
2022/02/25 08:28:18;;;;;;;6.23;2.40;;;5.00;99.90;;;;;;5079477;28;20229;-66
2022/02/25 08:30:44;;;;;;;7.33;2.47;;;4.90;99.90;;;;;;5083001;28;20231;-68
2022/02/25 08:33:11;;;;;;;18.50;3.43;;;5.00;99.90;;;;;;5079037;28;21174;-67
2022/02/25 08:35:37;;;;;;;8.37;2.83;;;5.00;99.90;;;;;;5080641;28;20421;-67
2022/02/25 08:38:03;;;;;;;7.13;3.00;;;5.00;99.90;;;;;;5080562;28;20475;-67
2022/02/25 08:40:29;;;;;;;9.70;3.77;;;5.10;99.90;;;;;;5080768;28;20804;-67
2022/02/25 08:42:55;;;;;;;4.10;2.30;;;5.20;99.90;;;;;;5080883;28;20433;-69
2022/02/25 08:45:21;;;;;;;5.67;2.73;;;5.30;99.90;;;;;;5080042;28;20431;-67
2022/02/25 08:47:47;;;;;;;10.10;2.70;;;5.30;99.90;;;;;;5077765;28;20204;-68
2022/02/25 08:50:16;;;;;;;6.93;2.70;;;5.40;99.90;;;;;;5080977;28;20283;-67
2022/02/25 08:52:42;;;;;;;7.17;3.33;;;5.50;99.90;;;;;;5082403;28;20438;-66
2022/02/25 08:55:09;;;;;;;9.10;3.40;;;5.40;99.90;;;;;;5080330;28;20515;-70
2022/02/25 08:57:37;;;;;;;7.60;3.03;;;5.50;99.90;;;;;;5079595;28;20464;-68
2022/02/25 09:00:06;;;;;;;5.53;2.50;;;5.60;99.90;;;;;;5077538;28;20557;-67
2022/02/25 09:02:31;;;;;;;7.30;2.97;;;5.60;99.90;;;;;;5082341;28;20428;-67
2022/02/25 09:04:57;;;;;;;8.90;2.90;;;5.60;99.90;;;;;;5080174;28;20953;-67
2022/02/25 09:07:23;;;;;;;5.53;2.40;;;5.70;99.90;;;;;;5080159;28;20182;-66
2022/02/25 09:09:50;;;;;;;7.90;2.97;;;5.70;99.90;;;;;;5080822;28;20216;-66
2022/02/25 09:12:15;;;;;;;5.70;2.23;;;5.80;99.90;;;;;;5084253;28;20280;-69
2022/02/25 09:14:41;;;;;;;9.87;2.70;;;5.80;99.90;;;;;;5082018;28;20708;-68
2022/02/25 09:17:10;;;;;;;8.80;2.10;;;5.90;99.90;;;;;;5082847;28;20550;-67
2022/02/25 09:19:35;;;;;;;5.23;2.33;;;5.90;99.90;;;;;;5083831;28;20243;-68
2022/02/25 09:22:02;;;;;;;9.40;3.80;;;6.00;99.90;;;;;;5083427;28;20829;-68
2022/02/25 09:24:28;;;;;;;6.90;3.17;;;5.90;99.90;;;;;;5083596;28;20178;-67
2022/02/25 09:26:54;;;;;;;9.80;3.03;;;5.80;99.90;;;;;;5086461;28;20428;-67
2022/02/25 09:29:19;;;;;;;8.00;2.90;;;5.90;99.90;;;;;;5082631;28;20190;-69
2022/02/25 09:31:45;;;;;;;12.60;3.20;;;5.90;99.90;;;;;;5084812;28;20288;-69
2022/02/25 09:34:11;;;;;;;9.33;3.17;;;6.00;99.90;;;;;;5081749;28;20473;-67
2022/02/25 09:36:37;;;;;;;6.93;3.30;;;6.00;99.90;;;;;;5081567;28;20914;-67
2022/02/25 09:39:03;;;;;;;10.20;2.43;;;6.10;99.90;;;;;;5083145;28;20436;-69
2022/02/25 09:41:30;;;;;;;3.83;2.50;;;6.20;99.90;;;;;;5086278;28;22062;-68
2022/02/25 09:43:56;;;;;;;19.00;3.70;;;6.20;99.90;;;;;;5078989;28;20186;-68
2022/02/25 09:46:22;;;;;;;7.43;3.00;;;6.30;99.90;;;;;;5083934;28;20420;-69
2022/02/25 09:48:47;;;;;;;3.87;2.40;;;6.40;99.90;;;;;;5084656;28;20647;-71
2022/02/25 09:51:13;;;;;;;7.33;2.80;;;6.40;99.90;;;;;;5083459;28;20205;-69
2022/02/25 09:53:39;;;;;;;8.00;3.13;;;6.40;99.90;;;;;;5084867;28;20310;-69
2022/02/25 09:56:05;;;;;;;10.23;4.00;;;6.40;99.90;;;;;;5084938;28;20194;-69
2022/02/25 09:58:31;;;;;;;7.13;3.10;;;6.40;99.90;;;;;;5082493;28;20459;-69
2022/02/25 10:00:57;;;;;;;6.50;2.63;;;6.40;99.90;;;;;;5085108;28;20526;-70
2022/02/25 10:03:25;;;;;;;10.70;2.80;;;6.50;99.90;;;;;;5083214;28;20858;-70
2022/02/25 10:05:51;;;;;;;8.50;3.03;;;6.50;99.90;;;;;;5073612;28;20259;-71
2022/02/25 10:08:22;;;;;;;9.00;3.60;;;6.60;99.90;;;;;;5081392;28;20943;-69
2022/02/25 10:10:56;;;;;;;5.70;3.30;;;6.70;99.90;;;;;;5075478;28;20464;-70
2022/02/25 10:13:25;;;;;;;6.07;2.63;;;6.70;99.90;;;;;;5083579;28;20482;-69
2022/02/25 10:15:53;;;;;;;4.67;2.50;;;6.70;99.90;;;;;;5084540;28;20816;-69
2022/02/25 10:18:22;;;;;;;9.67;2.93;;;6.70;99.90;;;;;;5080784;28;20527;-68
2022/02/25 10:20:48;;;;;;;6.20;3.03;;;6.80;99.90;;;;;;5085923;28;20949;-68
2022/02/25 10:23:25;;;;;;;4.77;3.10;;;6.90;99.90;;;;;;5083615;28;20504;-69
2022/02/25 10:25:52;;;;;;;15.40;3.23;;;6.90;99.90;;;;;;5084634;28;20420;-69
2022/02/25 10:28:32;;;;;;;6.90;2.60;;;7.10;99.90;;;;;;5081566;28;20436;-68
2022/02/25 10:31:34;;;;;;;3.87;2.27;;;7.20;99.90;;;;;;5083236;28;20492;-68
2022/02/25 10:34:16;;;;;;;9.03;3.33;;;7.30;99.90;;;;;;5057772;28;20562;-69
2022/02/25 10:36:48;;;;;;;10.93;3.27;;;7.30;99.90;;;;;;5081119;28;20482;-68
2022/02/25 10:39:24;;;;;;;7.20;2.70;;;7.30;99.90;;;;;;5082164;28;20436;-68
2022/02/25 10:42:23;;;;;;;9.83;3.37;;;7.30;99.90;;;;;;5082839;28;20421;-67
2022/02/25 10:44:57;;;;;;;8.13;3.00;;;7.20;99.90;;;;;;5081873;28;20441;-68
2022/02/25 10:47:25;;;;;;;16.80;4.27;;;7.40;99.90;;;;;;5081628;28;20971;-68
2022/02/25 10:50:04;;;;;;;8.97;2.80;;;7.40;99.90;;;;;;5080930;28;20496;-68
2022/02/25 10:52:35;;;;;;;11.67;3.10;;;7.50;99.90;;;;;;5083248;28;20436;-69
2022/02/25 10:55:03;;;;;;;9.03;2.73;;;7.50;99.90;;;;;;5080135;28;20822;-69
2022/02/25 10:57:29;;;;;;;3.90;2.40;;;7.60;99.90;;;;;;5082247;28;20451;-69
2022/02/25 10:59:57;;;;;;;5.07;3.07;;;7.60;99.90;;;;;;5083507;28;20448;-68
2022/02/25 11:02:47;;;;;;;7.87;2.80;;;7.60;99.90;;;;;;5081406;28;20432;-69
2022/02/25 11:05:23;;;;;;;8.97;3.40;;;7.70;99.90;;;;;;5082941;28;20433;-68
2022/02/25 11:07:52;;;;;;;5.63;2.47;;;7.80;99.90;;;;;;5082784;28;20447;-69
2022/02/25 11:10:21;;;;;;;3.13;2.00;;;7.90;99.90;;;;;;5094967;22;20950;-69
2022/02/25 11:12:48;;;;;;;7.90;2.77;;;7.90;99.90;;;;;;5076174;28;20991;-69
2022/02/25 11:15:27;;;;;;;10.10;3.00;;;7.80;99.90;;;;;;5075387;28;20503;-70
2022/02/25 11:17:54;;;;;;;8.33;2.90;;;7.60;99.90;;;;;;5077015;28;20468;-69
2022/02/25 11:20:22;;;;;;;16.13;4.83;;;7.60;99.90;;;;;;5075962;28;20798;-69
2022/02/25 11:22:53;;;;;;;7.87;3.07;;;7.60;99.90;;;;;;5076113;28;20441;-69
2022/02/25 11:25:19;;;;;;;6.97;2.90;;;7.60;99.90;;;;;;5072534;28;20776;-69
2022/02/25 11:27:46;;;;;;;10.13;2.67;;;7.60;99.90;;;;;;5075527;28;20436;-69
2022/02/25 11:30:13;;;;;;;5.17;3.80;;;7.60;99.90;;;;;;5080894;28;20491;-70
2022/02/25 11:32:46;;;;;;;12.17;2.90;;;7.60;99.90;;;;;;5075124;28;20448;-69
2022/02/25 11:35:19;;;;;;;13.33;2.80;;;7.60;99.90;;;;;;5067901;28;20428;-69
2022/02/25 11:37:58;;;;;;;4.97;2.50;;;7.60;99.90;;;;;;5073863;28;20467;-69
2022/02/25 11:40:57;;;;;;;7.90;2.90;;;7.60;99.90;;;;;;5075451;28;20457;-70
2022/02/25 11:43:38;;;;;;;6.00;2.60;;;7.60;99.90;;;;;;5077790;28;20435;-70
2022/02/25 11:46:06;;;;;;;3.70;2.70;;;7.60;99.90;;;;;;5081093;28;20425;-68
2022/02/25 11:48:47;;;;;;;8.80;4.70;;;7.70;99.90;;;;;;5076966;28;20472;-68
2022/02/25 11:51:31;;;;;;;7.13;3.17;;;7.70;99.90;;;;;;5077869;28;20458;-68
2022/02/25 11:54:28;;;;;;;4.43;2.87;;;7.80;99.90;;;;;;5076241;28;20448;-68
2022/02/25 11:56:57;;;;;;;4.73;2.53;;;7.70;99.90;;;;;;5070382;28;20456;-67
2022/02/25 11:59:23;;;;;;;6.73;2.80;;;7.80;99.90;;;;;;5074508;28;20539;-67
2022/02/25 12:02:03;;;;;;;7.80;2.63;;;7.80;99.90;;;;;;5074814;28;21142;-68
2022/02/25 12:04:32;;;;;;;6.10;3.00;;;7.80;99.90;;;;;;5079014;28;20442;-68
2022/02/25 12:07:00;;;;;;;9.30;2.73;;;7.80;99.90;;;;;;5076763;28;21022;-69
2022/02/25 12:09:51;;;;;;;8.90;3.00;;;7.80;99.90;;;;;;5071567;28;21055;-68
2022/02/25 12:12:22;;;;;;;6.23;3.10;;;7.80;99.90;;;;;;5074341;28;20793;-67
2022/02/25 12:15:00;;;;;;;14.13;3.27;;;7.80;99.90;;;;;;5076344;28;20440;-68
2022/02/25 12:17:46;;;;;;;7.53;2.87;;;7.80;99.90;;;;;;5075831;28;20472;-69
2022/02/25 12:20:40;;;;;;;8.00;2.60;;;7.80;99.90;;;;;;5075488;28;20487;-69
2022/02/25 12:23:11;;;;;;;9.50;2.90;;;7.70;99.90;;;;;;5065974;28;20434;-69
2022/02/25 12:25:39;;;;;;;12.50;2.70;;;7.70;99.90;;;;;;5066248;28;20456;-69
2022/02/25 12:28:14;;;;;;;8.73;3.50;;;7.70;99.90;;;;;;5073121;28;20463;-68
2022/02/25 12:30:43;;;;;;;5.80;2.10;;;7.70;99.90;;;;;;5072100;28;21051;-69
2022/02/25 12:33:44;;;;;;;7.53;2.17;;;7.80;99.90;;;;;;5073754;28;20428;-68
2022/02/25 12:36:35;;;;;;;8.10;2.20;;;7.80;99.90;;;;;;5063690;28;20792;-69
2022/02/25 12:39:10;;;;;;;11.17;2.20;;;7.80;99.90;;;;;;5071290;28;20463;-69
2022/02/25 12:41:40;;;;;;;6.07;2.33;;;7.70;99.90;;;;;;5074629;28;20471;-69
2022/02/25 12:44:12;;;;;;;9.43;2.33;;;7.70;99.90;;;;;;5074324;28;20884;-69
2022/02/25 12:46:40;;;;;;;5.27;2.63;;;7.60;99.90;;;;;;5075874;28;20448;-69
2022/02/25 12:49:07;;;;;;;4.97;2.00;;;7.40;99.90;;;;;;5074441;28;20503;-69
2022/02/25 12:51:33;;;;;;;7.60;2.53;;;7.40;99.90;;;;;;5073382;28;20447;-69
2022/02/25 12:54:05;;;;;;;10.13;3.00;;;7.40;99.90;;;;;;5074137;28;20436;-69
2022/02/25 12:56:36;;;;;;;6.33;2.50;;;7.40;99.90;;;;;;5071301;28;20416;-69
2022/02/25 12:59:05;;;;;;;4.90;2.03;;;7.30;99.90;;;;;;5071203;28;20471;-69
2022/02/25 13:01:33;;;;;;;5.10;2.60;;;7.30;99.90;;;;;;5073907;28;20908;-71
2022/02/25 13:04:04;;;;;;;10.87;2.77;;;7.30;99.90;;;;;;5070257;28;20438;-71